sensor_id;sensor_type;location;lat;lon;timestamp;temperature;humidity
59007;DHT22;44792;52.760;6.726;2022-08-19T00:01:31;17.50;99.90
59007;DHT22;44792;52.760;6.726;2022-08-19T00:04:03;17.40;99.90
59007;DHT22;44792;52.760;6.726;2022-08-19T00:06:29;17.40;99.90
59007;DHT22;44792;52.760;6.726;2022-08-19T00:08:56;17.40;99.90
59007;DHT22;44792;52.760;6.726;2022-08-19T00:11:22;17.40;99.90
59007;DHT22;44792;52.760;6.726;2022-08-19T00:13:48;17.50;99.90
59007;DHT22;44792;52.760;6.726;2022-08-19T00:16:16;17.50;99.90
59007;DHT22;44792;52.760;6.726;2022-08-19T00:18:45;17.50;99.90
59007;DHT22;44792;52.760;6.726;2022-08-19T00:21:10;17.50;99.90
59007;DHT22;44792;52.760;6.726;2022-08-19T00:23:36;17.50;99.90
59007;DHT22;44792;52.760;6.726;2022-08-19T00:26:05;17.40;99.90
59007;DHT22;44792;52.760;6.726;2022-08-19T00:28:32;17.40;99.90
59007;DHT22;44792;52.760;6.726;2022-08-19T00:30:59;17.50;99.90
59007;DHT22;44792;52.760;6.726;2022-08-19T00:33:25;17.50;99.90
59007;DHT22;44792;52.760;6.726;2022-08-19T00:35:50;17.40;99.90
59007;DHT22;44792;52.760;6.726;2022-08-19T00:38:16;17.40;99.90
59007;DHT22;44792;52.760;6.726;2022-08-19T00:40:45;17.40;99.90
59007;DHT22;44792;52.760;6.726;2022-08-19T00:43:14;17.30;99.90
59007;DHT22;44792;52.760;6.726;2022-08-19T00:45:43;17.20;99.90
59007;DHT22;44792;52.760;6.726;2022-08-19T00:48:10;17.10;99.90
59007;DHT22;44792;52.760;6.726;2022-08-19T00:50:36;17.10;99.90
59007;DHT22;44792;52.760;6.726;2022-08-19T00:53:05;17.10;99.90
59007;DHT22;44792;52.760;6.726;2022-08-19T00:55:32;17.20;99.90
59007;DHT22;44792;52.760;6.726;2022-08-19T00:58:02;17.20;99.90
59007;DHT22;44792;52.760;6.726;2022-08-19T01:00:30;17.10;99.90
59007;DHT22;44792;52.760;6.726;2022-08-19T01:02:56;17.00;99.90
59007;DHT22;44792;52.760;6.726;2022-08-19T01:05:25;17.00;99.90
59007;DHT22;44792;52.760;6.726;2022-08-19T01:07:53;17.00;99.90
59007;DHT22;44792;52.760;6.726;2022-08-19T01:10:21;17.10;99.90
59007;DHT22;44792;52.760;6.726;2022-08-19T01:12:49;17.10;99.90
59007;DHT22;44792;52.760;6.726;2022-08-19T01:15:24;17.10;99.90
59007;DHT22;44792;52.760;6.726;2022-08-19T01:17:50;17.10;99.90
59007;DHT22;44792;52.760;6.726;2022-08-19T01:20:20;17.10;99.90
59007;DHT22;44792;52.760;6.726;2022-08-19T01:22:49;17.10;99.90
59007;DHT22;44792;52.760;6.726;2022-08-19T01:25:19;17.10;99.90
59007;DHT22;44792;52.760;6.726;2022-08-19T01:27:47;17.10;99.90
59007;DHT22;44792;52.760;6.726;2022-08-19T01:30:25;17.10;99.90
59007;DHT22;44792;52.760;6.726;2022-08-19T01:32:53;17.10;99.90
59007;DHT22;44792;52.760;6.726;2022-08-19T01:35:19;17.10;99.90
59007;DHT22;44792;52.760;6.726;2022-08-19T01:37:55;17.10;99.90
59007;DHT22;44792;52.760;6.726;2022-08-19T01:40:24;17.10;99.90
59007;DHT22;44792;52.760;6.726;2022-08-19T01:42:51;17.10;99.90
59007;DHT22;44792;52.760;6.726;2022-08-19T01:45:18;17.00;99.90
59007;DHT22;44792;52.760;6.726;2022-08-19T01:47:44;17.00;99.90
59007;DHT22;44792;52.760;6.726;2022-08-19T01:50:11;16.90;99.90
59007;DHT22;44792;52.760;6.726;2022-08-19T01:52:38;16.80;99.90
59007;DHT22;44792;52.760;6.726;2022-08-19T01:55:06;16.80;99.90
59007;DHT22;44792;52.760;6.726;2022-08-19T01:57:32;16.70;99.90
59007;DHT22;44792;52.760;6.726;2022-08-19T01:59:58;16.60;99.90
59007;DHT22;44792;52.760;6.726;2022-08-19T02:02:24;16.50;99.90
59007;DHT22;44792;52.760;6.726;2022-08-19T02:04:50;16.60;99.90
59007;DHT22;44792;52.760;6.726;2022-08-19T02:07:19;16.60;99.90
59007;DHT22;44792;52.760;6.726;2022-08-19T02:09:45;16.60;99.90
59007;DHT22;44792;52.760;6.726;2022-08-19T02:12:11;16.50;99.90
59007;DHT22;44792;52.760;6.726;2022-08-19T02:14:36;16.50;99.90
59007;DHT22;44792;52.760;6.726;2022-08-19T02:17:02;16.40;99.90
59007;DHT22;44792;52.760;6.726;2022-08-19T02:19:28;16.30;99.90
59007;DHT22;44792;52.760;6.726;2022-08-19T02:21:53;16.20;99.90
59007;DHT22;44792;52.760;6.726;2022-08-19T02:24:19;16.10;99.90
59007;DHT22;44792;52.760;6.726;2022-08-19T02:26:44;16.20;99.90
59007;DHT22;44792;52.760;6.726;2022-08-19T02:29:10;16.10;99.90
59007;DHT22;44792;52.760;6.726;2022-08-19T02:31:36;16.10;99.90
59007;DHT22;44792;52.760;6.726;2022-08-19T02:34:01;16.10;99.90
59007;DHT22;44792;52.760;6.726;2022-08-19T02:36:27;16.20;99.90
59007;DHT22;44792;52.760;6.726;2022-08-19T02:38:54;16.30;99.90
59007;DHT22;44792;52.760;6.726;2022-08-19T02:41:22;16.30;99.90
59007;DHT22;44792;52.760;6.726;2022-08-19T02:43:49;16.30;99.90
59007;DHT22;44792;52.760;6.726;2022-08-19T02:46:23;16.30;99.90
59007;DHT22;44792;52.760;6.726;2022-08-19T02:48:51;16.20;99.90
59007;DHT22;44792;52.760;6.726;2022-08-19T02:51:19;16.20;99.90
59007;DHT22;44792;52.760;6.726;2022-08-19T02:53:45;16.20;99.90
59007;DHT22;44792;52.760;6.726;2022-08-19T02:56:10;16.30;99.90
59007;DHT22;44792;52.760;6.726;2022-08-19T02:58:36;16.30;99.90
59007;DHT22;44792;52.760;6.726;2022-08-19T03:01:02;16.40;99.90
59007;DHT22;44792;52.760;6.726;2022-08-19T03:03:27;16.30;99.90
59007;DHT22;44792;52.760;6.726;2022-08-19T03:06:04;16.30;99.90
59007;DHT22;44792;52.760;6.726;2022-08-19T03:08:29;16.30;99.90
59007;DHT22;44792;52.760;6.726;2022-08-19T03:10:55;16.30;99.90
59007;DHT22;44792;52.760;6.726;2022-08-19T03:13:21;16.30;99.90
59007;DHT22;44792;52.760;6.726;2022-08-19T03:15:47;16.30;99.90
59007;DHT22;44792;52.760;6.726;2022-08-19T03:18:13;16.30;99.90
59007;DHT22;44792;52.760;6.726;2022-08-19T03:20:44;16.30;99.90
59007;DHT22;44792;52.760;6.726;2022-08-19T03:23:11;16.30;99.90
59007;DHT22;44792;52.760;6.726;2022-08-19T03:25:43;16.20;99.90
59007;DHT22;44792;52.760;6.726;2022-08-19T03:28:13;16.20;99.90
59007;DHT22;44792;52.760;6.726;2022-08-19T03:30:40;16.20;99.90
59007;DHT22;44792;52.760;6.726;2022-08-19T03:33:10;16.20;99.90
59007;DHT22;44792;52.760;6.726;2022-08-19T03:35:37;16.30;99.90
59007;DHT22;44792;52.760;6.726;2022-08-19T03:38:05;16.20;99.90
59007;DHT22;44792;52.760;6.726;2022-08-19T03:40:32;16.10;99.90
59007;DHT22;44792;52.760;6.726;2022-08-19T03:43:00;16.00;99.90
59007;DHT22;44792;52.760;6.726;2022-08-19T03:45:26;15.90;99.90
59007;DHT22;44792;52.760;6.726;2022-08-19T03:47:53;15.90;99.90
59007;DHT22;44792;52.760;6.726;2022-08-19T03:50:18;16.00;99.90
59007;DHT22;44792;52.760;6.726;2022-08-19T03:52:49;15.90;99.90
59007;DHT22;44792;52.760;6.726;2022-08-19T03:55:16;15.90;99.90
59007;DHT22;44792;52.760;6.726;2022-08-19T03:57:41;15.90;99.90
59007;DHT22;44792;52.760;6.726;2022-08-19T04:00:07;15.90;99.90
59007;DHT22;44792;52.760;6.726;2022-08-19T04:02:33;15.90;99.90
59007;DHT22;44792;52.760;6.726;2022-08-19T04:04:58;15.90;99.90
59007;DHT22;44792;52.760;6.726;2022-08-19T04:07:24;15.90;99.90
59007;DHT22;44792;52.760;6.726;2022-08-19T04:09:50;15.90;99.90
59007;DHT22;44792;52.760;6.726;2022-08-19T04:12:17;15.90;99.90
59007;DHT22;44792;52.760;6.726;2022-08-19T04:14:44;15.80;99.90
59007;DHT22;44792;52.760;6.726;2022-08-19T04:17:10;15.80;99.90
59007;DHT22;44792;52.760;6.726;2022-08-19T04:19:36;15.60;99.90
59007;DHT22;44792;52.760;6.726;2022-08-19T04:22:03;15.50;99.90
59007;DHT22;44792;52.760;6.726;2022-08-19T04:24:29;15.50;99.90
59007;DHT22;44792;52.760;6.726;2022-08-19T04:26:55;15.60;99.90
59007;DHT22;44792;52.760;6.726;2022-08-19T04:29:23;15.70;99.90
59007;DHT22;44792;52.760;6.726;2022-08-19T04:31:51;15.70;99.90
59007;DHT22;44792;52.760;6.726;2022-08-19T04:34:20;15.60;99.90
59007;DHT22;44792;52.760;6.726;2022-08-19T04:36:47;15.40;99.90
59007;DHT22;44792;52.760;6.726;2022-08-19T04:39:19;15.60;99.90
59007;DHT22;44792;52.760;6.726;2022-08-19T04:41:45;15.70;99.90
59007;DHT22;44792;52.760;6.726;2022-08-19T04:44:31;15.70;99.90
59007;DHT22;44792;52.760;6.726;2022-08-19T04:46:58;15.70;99.90
59007;DHT22;44792;52.760;6.726;2022-08-19T04:49:24;15.60;99.90
59007;DHT22;44792;52.760;6.726;2022-08-19T04:51:51;15.40;99.90
59007;DHT22;44792;52.760;6.726;2022-08-19T04:54:21;15.40;99.90
59007;DHT22;44792;52.760;6.726;2022-08-19T04:56:51;15.40;99.90
59007;DHT22;44792;52.760;6.726;2022-08-19T04:59:18;15.40;99.90
59007;DHT22;44792;52.760;6.726;2022-08-19T05:01:46;15.40;99.90
59007;DHT22;44792;52.760;6.726;2022-08-19T05:04:15;15.50;99.90
59007;DHT22;44792;52.760;6.726;2022-08-19T05:06:42;15.50;99.90
59007;DHT22;44792;52.760;6.726;2022-08-19T05:09:08;15.60;99.90
59007;DHT22;44792;52.760;6.726;2022-08-19T05:11:36;15.50;99.90
59007;DHT22;44792;52.760;6.726;2022-08-19T05:14:03;15.50;99.90
59007;DHT22;44792;52.760;6.726;2022-08-19T05:16:29;15.50;99.90
59007;DHT22;44792;52.760;6.726;2022-08-19T05:18:55;15.60;99.90
59007;DHT22;44792;52.760;6.726;2022-08-19T05:21:40;15.70;99.90
59007;DHT22;44792;52.760;6.726;2022-08-19T05:24:25;15.70;99.90
59007;DHT22;44792;52.760;6.726;2022-08-19T05:26:52;15.80;99.90
59007;DHT22;44792;52.760;6.726;2022-08-19T05:29:23;15.90;99.90
59007;DHT22;44792;52.760;6.726;2022-08-19T05:31:50;16.00;99.90
59007;DHT22;44792;52.760;6.726;2022-08-19T05:34:17;16.10;99.90
59007;DHT22;44792;52.760;6.726;2022-08-19T05:36:44;16.20;99.90
59007;DHT22;44792;52.760;6.726;2022-08-19T05:39:14;16.30;99.90
59007;DHT22;44792;52.760;6.726;2022-08-19T05:41:45;16.40;99.90
59007;DHT22;44792;52.760;6.726;2022-08-19T05:44:11;16.40;99.90
59007;DHT22;44792;52.760;6.726;2022-08-19T05:46:39;16.40;99.90
59007;DHT22;44792;52.760;6.726;2022-08-19T05:49:06;16.50;99.90
59007;DHT22;44792;52.760;6.726;2022-08-19T05:51:33;16.70;99.90
59007;DHT22;44792;52.760;6.726;2022-08-19T05:54:00;16.90;99.90
59007;DHT22;44792;52.760;6.726;2022-08-19T05:56:26;17.20;99.90
59007;DHT22;44792;52.760;6.726;2022-08-19T05:58:52;17.30;99.90
59007;DHT22;44792;52.760;6.726;2022-08-19T06:01:19;17.50;99.90
59007;DHT22;44792;52.760;6.726;2022-08-19T06:03:45;17.60;99.90
59007;DHT22;44792;52.760;6.726;2022-08-19T06:06:14;17.80;99.90
59007;DHT22;44792;52.760;6.726;2022-08-19T06:08:40;17.70;99.90
59007;DHT22;44792;52.760;6.726;2022-08-19T06:11:19;17.80;99.90
59007;DHT22;44792;52.760;6.726;2022-08-19T06:13:45;17.80;99.90
59007;DHT22;44792;52.760;6.726;2022-08-19T06:16:13;17.90;99.90
59007;DHT22;44792;52.760;6.726;2022-08-19T06:18:44;18.10;99.90
59007;DHT22;44792;52.760;6.726;2022-08-19T06:21:10;18.40;99.90
59007;DHT22;44792;52.760;6.726;2022-08-19T06:23:36;18.50;99.90
59007;DHT22;44792;52.760;6.726;2022-08-19T06:26:01;18.60;99.90
59007;DHT22;44792;52.760;6.726;2022-08-19T06:28:27;18.70;99.90
59007;DHT22;44792;52.760;6.726;2022-08-19T06:30:52;18.80;99.90
59007;DHT22;44792;52.760;6.726;2022-08-19T06:33:18;18.90;99.90
59007;DHT22;44792;52.760;6.726;2022-08-19T06:35:43;19.00;99.90
59007;DHT22;44792;52.760;6.726;2022-08-19T06:38:09;19.00;99.90
59007;DHT22;44792;52.760;6.726;2022-08-19T06:40:35;19.20;99.90
59007;DHT22;44792;52.760;6.726;2022-08-19T06:43:03;19.10;99.90
59007;DHT22;44792;52.760;6.726;2022-08-19T06:45:29;19.20;99.90
59007;DHT22;44792;52.760;6.726;2022-08-19T06:47:55;19.20;99.90
59007;DHT22;44792;52.760;6.726;2022-08-19T06:50:24;19.20;99.90
59007;DHT22;44792;52.760;6.726;2022-08-19T06:52:50;19.30;99.90
59007;DHT22;44792;52.760;6.726;2022-08-19T06:55:15;19.40;99.90
59007;DHT22;44792;52.760;6.726;2022-08-19T06:57:41;19.40;99.90
59007;DHT22;44792;52.760;6.726;2022-08-19T07:00:08;19.40;99.90
59007;DHT22;44792;52.760;6.726;2022-08-19T07:02:39;19.40;99.90
59007;DHT22;44792;52.760;6.726;2022-08-19T07:05:05;19.50;99.90
59007;DHT22;44792;52.760;6.726;2022-08-19T07:07:31;19.50;99.90
59007;DHT22;44792;52.760;6.726;2022-08-19T07:09:57;19.60;99.90
59007;DHT22;44792;52.760;6.726;2022-08-19T07:12:22;19.60;99.90
59007;DHT22;44792;52.760;6.726;2022-08-19T07:14:48;19.70;99.90
59007;DHT22;44792;52.760;6.726;2022-08-19T07:17:14;19.80;99.90
59007;DHT22;44792;52.760;6.726;2022-08-19T07:19:41;19.90;99.90
59007;DHT22;44792;52.760;6.726;2022-08-19T07:22:09;19.90;99.90
59007;DHT22;44792;52.760;6.726;2022-08-19T07:24:36;19.90;99.90
59007;DHT22;44792;52.760;6.726;2022-08-19T07:27:04;19.80;99.90
59007;DHT22;44792;52.760;6.726;2022-08-19T07:29:31;19.90;99.90
59007;DHT22;44792;52.760;6.726;2022-08-19T07:31:59;20.00;99.90
59007;DHT22;44792;52.760;6.726;2022-08-19T07:34:27;20.10;99.90
59007;DHT22;44792;52.760;6.726;2022-08-19T07:36:54;20.10;99.90
59007;DHT22;44792;52.760;6.726;2022-08-19T07:39:28;20.20;99.90
59007;DHT22;44792;52.760;6.726;2022-08-19T07:41:55;20.30;99.90
59007;DHT22;44792;52.760;6.726;2022-08-19T07:44:21;20.40;99.90
59007;DHT22;44792;52.760;6.726;2022-08-19T07:46:51;20.40;99.90
59007;DHT22;44792;52.760;6.726;2022-08-19T07:49:17;20.50;99.90
59007;DHT22;44792;52.760;6.726;2022-08-19T07:52:05;20.40;99.90
59007;DHT22;44792;52.760;6.726;2022-08-19T07:54:34;20.50;99.90
59007;DHT22;44792;52.760;6.726;2022-08-19T07:57:01;20.50;99.90
59007;DHT22;44792;52.760;6.726;2022-08-19T07:59:27;20.60;99.90
59007;DHT22;44792;52.760;6.726;2022-08-19T08:01:54;20.60;99.90
59007;DHT22;44792;52.760;6.726;2022-08-19T08:04:20;20.60;99.90
59007;DHT22;44792;52.760;6.726;2022-08-19T08:07:06;20.70;99.90
59007;DHT22;44792;52.760;6.726;2022-08-19T08:09:51;20.80;99.90
59007;DHT22;44792;52.760;6.726;2022-08-19T08:12:22;20.90;99.90
59007;DHT22;44792;52.760;6.726;2022-08-19T08:14:52;21.00;99.90
59007;DHT22;44792;52.760;6.726;2022-08-19T08:17:21;21.00;99.90
59007;DHT22;44792;52.760;6.726;2022-08-19T08:19:48;21.10;99.90
59007;DHT22;44792;52.760;6.726;2022-08-19T08:22:17;21.10;99.90
59007;DHT22;44792;52.760;6.726;2022-08-19T08:25:06;21.10;99.90
59007;DHT22;44792;52.760;6.726;2022-08-19T08:27:36;21.20;99.90
59007;DHT22;44792;52.760;6.726;2022-08-19T08:30:06;21.20;99.90
59007;DHT22;44792;52.760;6.726;2022-08-19T08:32:35;21.40;99.90
59007;DHT22;44792;52.760;6.726;2022-08-19T08:35:01;21.50;99.90
59007;DHT22;44792;52.760;6.726;2022-08-19T08:37:26;21.70;99.90
59007;DHT22;44792;52.760;6.726;2022-08-19T08:39:52;21.70;99.90
59007;DHT22;44792;52.760;6.726;2022-08-19T08:42:24;21.80;99.90
59007;DHT22;44792;52.760;6.726;2022-08-19T08:45:00;22.00;99.90
59007;DHT22;44792;52.760;6.726;2022-08-19T08:47:37;22.00;99.90
59007;DHT22;44792;52.760;6.726;2022-08-19T08:50:20;22.20;99.90
59007;DHT22;44792;52.760;6.726;2022-08-19T08:52:51;22.30;99.90
59007;DHT22;44792;52.760;6.726;2022-08-19T08:55:22;22.20;99.90
59007;DHT22;44792;52.760;6.726;2022-08-19T09:00:33;22.20;99.90
59007;DHT22;44792;52.760;6.726;2022-08-19T09:03:01;22.20;99.90
59007;DHT22;44792;52.760;6.726;2022-08-19T09:05:41;22.20;99.90
59007;DHT22;44792;52.760;6.726;2022-08-19T09:08:27;22.20;99.90
59007;DHT22;44792;52.760;6.726;2022-08-19T09:10:56;22.30;99.90
59007;DHT22;44792;52.760;6.726;2022-08-19T09:16:14;22.20;99.90
59007;DHT22;44792;52.760;6.726;2022-08-19T09:18:47;22.40;99.90
59007;DHT22;44792;52.760;6.726;2022-08-19T09:21:15;22.50;99.90
59007;DHT22;44792;52.760;6.726;2022-08-19T09:23:41;22.60;99.90
59007;DHT22;44792;52.760;6.726;2022-08-19T09:26:10;22.60;99.90
59007;DHT22;44792;52.760;6.726;2022-08-19T09:28:42;22.60;99.90
59007;DHT22;44792;52.760;6.726;2022-08-19T09:31:12;22.70;99.90
59007;DHT22;44792;52.760;6.726;2022-08-19T09:33:39;22.80;99.90
59007;DHT22;44792;52.760;6.726;2022-08-19T09:36:09;22.90;99.90
59007;DHT22;44792;52.760;6.726;2022-08-19T09:38:36;23.00;99.90
59007;DHT22;44792;52.760;6.726;2022-08-19T09:41:05;23.10;99.90
59007;DHT22;44792;52.760;6.726;2022-08-19T09:43:32;23.20;99.90
59007;DHT22;44792;52.760;6.726;2022-08-19T09:46:00;23.30;99.90
59007;DHT22;44792;52.760;6.726;2022-08-19T09:48:26;23.30;99.90
59007;DHT22;44792;52.760;6.726;2022-08-19T09:50:51;23.40;99.90
59007;DHT22;44792;52.760;6.726;2022-08-19T09:53:17;23.30;99.90
59007;DHT22;44792;52.760;6.726;2022-08-19T09:55:43;23.30;99.90
59007;DHT22;44792;52.760;6.726;2022-08-19T09:58:09;23.40;99.90
59007;DHT22;44792;52.760;6.726;2022-08-19T10:00:37;23.50;99.90
59007;DHT22;44792;52.760;6.726;2022-08-19T10:03:03;23.60;99.90
59007;DHT22;44792;52.760;6.726;2022-08-19T10:05:29;23.60;99.90
59007;DHT22;44792;52.760;6.726;2022-08-19T10:08:13;23.60;99.90
59007;DHT22;44792;52.760;6.726;2022-08-19T10:10:39;23.60;99.90
59007;DHT22;44792;52.760;6.726;2022-08-19T10:13:04;23.50;99.90
59007;DHT22;44792;52.760;6.726;2022-08-19T10:15:30;23.70;99.90
59007;DHT22;44792;52.760;6.726;2022-08-19T10:17:56;23.70;99.90
59007;DHT22;44792;52.760;6.726;2022-08-19T10:20:22;23.80;99.90
59007;DHT22;44792;52.760;6.726;2022-08-19T10:22:48;23.80;99.90
59007;DHT22;44792;52.760;6.726;2022-08-19T10:25:13;23.80;99.90
59007;DHT22;44792;52.760;6.726;2022-08-19T10:27:39;23.90;99.90
59007;DHT22;44792;52.760;6.726;2022-08-19T10:30:05;24.00;99.90
59007;DHT22;44792;52.760;6.726;2022-08-19T10:32:31;24.00;99.90
59007;DHT22;44792;52.760;6.726;2022-08-19T10:34:57;24.20;99.90
59007;DHT22;44792;52.760;6.726;2022-08-19T10:37:22;24.20;99.90
59007;DHT22;44792;52.760;6.726;2022-08-19T10:39:48;24.10;99.90
59007;DHT22;44792;52.760;6.726;2022-08-19T10:42:14;24.10;99.90
59007;DHT22;44792;52.760;6.726;2022-08-19T10:44:41;24.20;99.90
59007;DHT22;44792;52.760;6.726;2022-08-19T10:47:07;24.30;99.90
59007;DHT22;44792;52.760;6.726;2022-08-19T10:49:32;24.40;99.90
59007;DHT22;44792;52.760;6.726;2022-08-19T10:52:18;24.40;99.90
59007;DHT22;44792;52.760;6.726;2022-08-19T10:54:59;24.40;99.90
59007;DHT22;44792;52.760;6.726;2022-08-19T10:57:44;24.50;99.90
59007;DHT22;44792;52.760;6.726;2022-08-19T11:00:10;24.70;99.90
59007;DHT22;44792;52.760;6.726;2022-08-19T11:02:36;24.70;99.90
59007;DHT22;44792;52.760;6.726;2022-08-19T11:05:01;24.70;99.90
59007;DHT22;44792;52.760;6.726;2022-08-19T11:07:27;24.70;99.90
59007;DHT22;44792;52.760;6.726;2022-08-19T11:09:52;24.70;99.90
59007;DHT22;44792;52.760;6.726;2022-08-19T11:12:18;24.60;99.90
59007;DHT22;44792;52.760;6.726;2022-08-19T11:14:44;24.60;99.90
59007;DHT22;44792;52.760;6.726;2022-08-19T11:17:10;24.60;99.90
59007;DHT22;44792;52.760;6.726;2022-08-19T11:19:39;24.70;99.90
59007;DHT22;44792;52.760;6.726;2022-08-19T11:22:10;24.60;99.90
59007;DHT22;44792;52.760;6.726;2022-08-19T11:24:35;24.70;99.90
59007;DHT22;44792;52.760;6.726;2022-08-19T11:27:07;24.70;99.90
59007;DHT22;44792;52.760;6.726;2022-08-19T11:29:35;24.80;99.90
59007;DHT22;44792;52.760;6.726;2022-08-19T11:32:07;24.90;99.90
59007;DHT22;44792;52.760;6.726;2022-08-19T11:34:34;25.00;99.90
59007;DHT22;44792;52.760;6.726;2022-08-19T11:37:01;25.10;99.90
59007;DHT22;44792;52.760;6.726;2022-08-19T11:39:29;25.20;99.90
59007;DHT22;44792;52.760;6.726;2022-08-19T11:41:57;25.10;99.90
59007;DHT22;44792;52.760;6.726;2022-08-19T11:44:23;25.20;99.90
59007;DHT22;44792;52.760;6.726;2022-08-19T11:46:48;25.20;99.90
59007;DHT22;44792;52.760;6.726;2022-08-19T11:49:16;25.40;99.90
59007;DHT22;44792;52.760;6.726;2022-08-19T11:51:44;25.50;99.90
59007;DHT22;44792;52.760;6.726;2022-08-19T11:54:12;25.50;99.90
59007;DHT22;44792;52.760;6.726;2022-08-19T11:56:38;25.50;99.90
59007;DHT22;44792;52.760;6.726;2022-08-19T11:59:04;25.50;99.90
59007;DHT22;44792;52.760;6.726;2022-08-19T12:01:30;25.60;99.90
59007;DHT22;44792;52.760;6.726;2022-08-19T12:03:57;25.70;99.90
59007;DHT22;44792;52.760;6.726;2022-08-19T12:06:32;25.60;99.90
59007;DHT22;44792;52.760;6.726;2022-08-19T12:09:03;25.50;99.90
59007;DHT22;44792;52.760;6.726;2022-08-19T12:11:30;25.60;99.90
59007;DHT22;44792;52.760;6.726;2022-08-19T12:13:56;25.60;99.90
59007;DHT22;44792;52.760;6.726;2022-08-19T12:16:25;25.70;99.90
59007;DHT22;44792;52.760;6.726;2022-08-19T12:18:51;25.80;99.90
59007;DHT22;44792;52.760;6.726;2022-08-19T12:21:20;25.70;99.90
59007;DHT22;44792;52.760;6.726;2022-08-19T12:23:48;25.70;99.90
59007;DHT22;44792;52.760;6.726;2022-08-19T12:26:15;25.70;99.90
59007;DHT22;44792;52.760;6.726;2022-08-19T12:28:41;25.70;99.90
59007;DHT22;44792;52.760;6.726;2022-08-19T12:31:06;25.80;99.90
59007;DHT22;44792;52.760;6.726;2022-08-19T12:33:32;25.90;99.90
59007;DHT22;44792;52.760;6.726;2022-08-19T12:36:04;26.00;99.90
59007;DHT22;44792;52.760;6.726;2022-08-19T12:38:31;26.10;99.90
59007;DHT22;44792;52.760;6.726;2022-08-19T12:40:58;26.10;99.90
59007;DHT22;44792;52.760;6.726;2022-08-19T12:43:24;26.20;99.90
59007;DHT22;44792;52.760;6.726;2022-08-19T12:45:50;26.10;99.90
59007;DHT22;44792;52.760;6.726;2022-08-19T12:48:15;26.20;99.90
59007;DHT22;44792;52.760;6.726;2022-08-19T12:50:43;26.20;99.90
59007;DHT22;44792;52.760;6.726;2022-08-19T12:53:11;26.20;99.90
59007;DHT22;44792;52.760;6.726;2022-08-19T12:55:36;26.20;99.90
59007;DHT22;44792;52.760;6.726;2022-08-19T12:58:02;26.30;99.90
59007;DHT22;44792;52.760;6.726;2022-08-19T13:00:28;26.30;99.90
59007;DHT22;44792;52.760;6.726;2022-08-19T13:02:54;26.30;99.90
59007;DHT22;44792;52.760;6.726;2022-08-19T13:05:25;26.20;99.90
59007;DHT22;44792;52.760;6.726;2022-08-19T13:07:53;26.20;99.90
59007;DHT22;44792;52.760;6.726;2022-08-19T13:10:22;26.20;99.90
59007;DHT22;44792;52.760;6.726;2022-08-19T13:12:50;26.20;99.90
59007;DHT22;44792;52.760;6.726;2022-08-19T13:15:17;26.20;99.90
59007;DHT22;44792;52.760;6.726;2022-08-19T13:17:50;26.30;99.90
59007;DHT22;44792;52.760;6.726;2022-08-19T13:20:18;26.40;99.90
59007;DHT22;44792;52.760;6.726;2022-08-19T13:22:45;26.40;99.90
59007;DHT22;44792;52.760;6.726;2022-08-19T13:25:13;26.40;99.90
59007;DHT22;44792;52.760;6.726;2022-08-19T13:27:39;26.30;99.90
59007;DHT22;44792;52.760;6.726;2022-08-19T13:30:07;26.40;99.90
59007;DHT22;44792;52.760;6.726;2022-08-19T13:32:51;26.40;99.90
59007;DHT22;44792;52.760;6.726;2022-08-19T13:35:37;26.50;99.90
59007;DHT22;44792;52.760;6.726;2022-08-19T13:38:03;26.60;99.90
59007;DHT22;44792;52.760;6.726;2022-08-19T13:40:31;26.50;99.90
59007;DHT22;44792;52.760;6.726;2022-08-19T13:43:00;26.50;99.90
59007;DHT22;44792;52.760;6.726;2022-08-19T13:45:27;26.50;99.90
59007;DHT22;44792;52.760;6.726;2022-08-19T13:47:55;26.60;99.90
59007;DHT22;44792;52.760;6.726;2022-08-19T13:50:23;26.60;99.90
59007;DHT22;44792;52.760;6.726;2022-08-19T13:52:51;26.60;99.90
59007;DHT22;44792;52.760;6.726;2022-08-19T13:55:17;26.60;99.90
59007;DHT22;44792;52.760;6.726;2022-08-19T13:57:42;26.70;99.90
59007;DHT22;44792;52.760;6.726;2022-08-19T14:00:12;26.70;99.90
59007;DHT22;44792;52.760;6.726;2022-08-19T14:02:38;26.80;99.90
59007;DHT22;44792;52.760;6.726;2022-08-19T14:05:06;26.90;99.90
59007;DHT22;44792;52.760;6.726;2022-08-19T14:07:32;26.90;99.90
59007;DHT22;44792;52.760;6.726;2022-08-19T14:09:58;26.80;99.90
59007;DHT22;44792;52.760;6.726;2022-08-19T14:12:23;26.90;99.90
59007;DHT22;44792;52.760;6.726;2022-08-19T14:14:49;27.10;99.90
59007;DHT22;44792;52.760;6.726;2022-08-19T14:17:15;26.90;99.90
59007;DHT22;44792;52.760;6.726;2022-08-19T14:19:41;26.90;99.30
59007;DHT22;44792;52.760;6.726;2022-08-19T14:22:07;26.90;99.90
59007;DHT22;44792;52.760;6.726;2022-08-19T14:24:32;26.90;99.90
59007;DHT22;44792;52.760;6.726;2022-08-19T14:26:59;26.90;99.90
59007;DHT22;44792;52.760;6.726;2022-08-19T14:29:25;27.10;99.90
59007;DHT22;44792;52.760;6.726;2022-08-19T14:31:50;27.00;99.90
59007;DHT22;44792;52.760;6.726;2022-08-19T14:34:16;27.10;99.90
59007;DHT22;44792;52.760;6.726;2022-08-19T14:36:42;27.00;99.90
59007;DHT22;44792;52.760;6.726;2022-08-19T14:39:08;27.00;99.90
59007;DHT22;44792;52.760;6.726;2022-08-19T14:41:35;27.10;99.20
59007;DHT22;44792;52.760;6.726;2022-08-19T14:44:01;27.10;99.60
59007;DHT22;44792;52.760;6.726;2022-08-19T14:46:28;27.10;99.90
59007;DHT22;44792;52.760;6.726;2022-08-19T14:48:54;27.00;99.90
59007;DHT22;44792;52.760;6.726;2022-08-19T14:51:22;27.00;99.90
59007;DHT22;44792;52.760;6.726;2022-08-19T14:53:48;26.90;99.90
59007;DHT22;44792;52.760;6.726;2022-08-19T14:56:20;26.90;99.90
59007;DHT22;44792;52.760;6.726;2022-08-19T14:58:46;26.90;99.90
59007;DHT22;44792;52.760;6.726;2022-08-19T15:01:13;26.90;99.90
59007;DHT22;44792;52.760;6.726;2022-08-19T15:03:39;26.80;99.90
59007;DHT22;44792;52.760;6.726;2022-08-19T15:06:08;26.70;99.90
59007;DHT22;44792;52.760;6.726;2022-08-19T15:08:35;26.70;99.90
59007;DHT22;44792;52.760;6.726;2022-08-19T15:11:02;26.90;99.90
59007;DHT22;44792;52.760;6.726;2022-08-19T15:13:29;26.90;99.90
59007;DHT22;44792;52.760;6.726;2022-08-19T15:15:55;27.00;99.90
59007;DHT22;44792;52.760;6.726;2022-08-19T15:18:21;26.60;99.90
59007;DHT22;44792;52.760;6.726;2022-08-19T15:20:48;26.60;99.90
59007;DHT22;44792;52.760;6.726;2022-08-19T15:23:19;26.70;99.90
59007;DHT22;44792;52.760;6.726;2022-08-19T15:25:45;26.70;99.90
59007;DHT22;44792;52.760;6.726;2022-08-19T15:28:11;26.80;99.90
59007;DHT22;44792;52.760;6.726;2022-08-19T15:30:38;26.60;99.90
59007;DHT22;44792;52.760;6.726;2022-08-19T15:33:04;26.60;99.90
59007;DHT22;44792;52.760;6.726;2022-08-19T15:35:30;26.60;99.90
59007;DHT22;44792;52.760;6.726;2022-08-19T15:37:56;26.80;99.90
59007;DHT22;44792;52.760;6.726;2022-08-19T15:40:23;26.60;99.90